Time;durP1;ratioP1;P1;durP2;ratioP2;P2;SDS_P1;SDS_P2;PMS_P1;PMS_P2;Temp;Humidity;BMP_temperature;BMP_pressure;BME280_temperature;BME280_humidity;BME280_pressure;Samples;Min_cycle;Max_cycle;Signal;HPM_P1;HPM_P2
2022/11/08 00:01:30;;;;;;;8.13;4.05;;;;;;;;;;521105;28;1442;-61
2022/11/08 00:01:45;;;;;;;8.63;4.18;;;;;;;;;;521014;28;1296;-60
2022/11/08 00:02:00;;;;;;;7.77;4.17;;;;;;;;;;519850;28;1373;-60
2022/11/08 00:02:16;;;;;;;7.50;4.10;;;;;;;;;;522387;28;1286;-61
2022/11/08 00:02:31;;;;;;;7.70;4.13;;;;;;;;;;522059;28;1673;-60
2022/11/08 00:02:46;;;;;;;8.52;4.13;;;;;;;;;;521991;28;1371;-61
2022/11/08 00:03:02;;;;;;;8.57;3.97;;;;;;;;;;521913;28;1982;-60
2022/11/08 00:03:17;;;;;;;8.93;3.93;;;;;;;;;;518195;28;1444;-61
2022/11/08 00:03:32;;;;;;;9.80;4.13;;;;;;;;;;515628;28;1225;-61
2022/11/08 00:03:47;;;;;;;8.70;4.20;;;;;;;;;;514215;28;1161;-60
2022/11/08 00:04:13;;;;;;;8.03;4.20;;;;;;;;;;517217;28;1413;-60
2022/11/08 00:04:29;;;;;;;6.38;3.90;;;;;;;;;;517092;28;1444;-61
2022/11/08 00:04:44;;;;;;;7.20;3.87;;;;;;;;;;517967;28;1546;-60
2022/11/08 00:14:03;;;;;;;9.27;4.70;;;;;;;;;;525905;27;1322;-61
2022/11/08 00:14:18;;;;;;;8.53;4.80;;;;;;;;;;526501;27;1554;-60
2022/11/08 00:14:34;;;;;;;9.20;4.55;;;;;;;;;;524553;27;1426;-60
2022/11/08 00:14:49;;;;;;;8.27;4.23;;;;;;;;;;523764;27;1720;-61
2022/11/08 00:15:06;;;;;;;6.18;4.00;;;;;;;;;;523241;28;2383;-60
2022/11/08 00:15:21;;;;;;;6.95;4.18;;;;;;;;;;522124;28;1168;-60
2022/11/08 00:15:37;;;;;;;7.53;4.47;;;;;;;;;;523445;28;1487;-60
2022/11/08 00:15:52;;;;;;;7.45;4.40;;;;;;;;;;523021;28;1425;-60
2022/11/08 00:16:07;;;;;;;7.97;4.50;;;;;;;;;;522647;28;1461;-60
2022/11/08 00:16:23;;;;;;;7.90;4.30;;;;;;;;;;522472;28;1108;-61
2022/11/08 00:16:39;;;;;;;6.75;4.10;;;;;;;;;;524809;28;1104;-60
2022/11/08 00:16:54;;;;;;;8.40;4.20;;;;;;;;;;521819;28;2194;-61
2022/11/08 00:17:09;;;;;;;8.83;4.30;;;;;;;;;;522793;28;1150;-60
2022/11/08 00:17:27;;;;;;;7.82;4.35;;;;;;;;;;526402;27;1502;-60
2022/11/08 00:17:43;;;;;;;7.18;4.30;;;;;;;;;;523965;28;1232;-61
2022/11/08 00:17:58;;;;;;;7.18;4.50;;;;;;;;;;524759;27;994;-60
2022/11/08 00:18:13;;;;;;;7.27;4.63;;;;;;;;;;523868;28;1069;-60
2022/11/08 00:18:28;;;;;;;6.20;4.30;;;;;;;;;;524286;28;1188;-61
2022/11/08 00:18:45;;;;;;;6.43;4.25;;;;;;;;;;525218;27;1173;-60
2022/11/08 00:19:00;;;;;;;8.50;4.45;;;;;;;;;;525907;27;1308;-60
2022/11/08 00:19:16;;;;;;;8.63;4.28;;;;;;;;;;526234;27;1090;-61
2022/11/08 00:19:31;;;;;;;7.93;4.23;;;;;;;;;;521580;28;1309;-61
2022/11/08 00:19:46;;;;;;;7.53;4.40;;;;;;;;;;522438;28;1046;-61
2022/11/08 00:20:04;;;;;;;8.32;4.60;;;;;;;;;;524036;28;1274;-61
2022/11/08 00:20:19;;;;;;;8.23;4.45;;;;;;;;;;523062;28;1198;-60
2022/11/08 00:20:35;;;;;;;7.53;4.13;;;;;;;;;;519538;28;2233;-61
2022/11/08 00:20:50;;;;;;;6.90;4.00;;;;;;;;;;521268;28;1382;-60
2022/11/08 00:21:05;;;;;;;7.93;4.20;;;;;;;;;;521584;28;1133;-60
2022/11/08 00:21:21;;;;;;;8.85;4.20;;;;;;;;;;521587;28;1077;-60
2022/11/08 00:21:36;;;;;;;7.40;4.10;;;;;;;;;;522665;28;1354;-60
2022/11/08 00:21:51;;;;;;;7.33;4.40;;;;;;;;;;521987;28;1571;-60
2022/11/08 00:22:06;;;;;;;8.63;4.68;;;;;;;;;;522848;28;1255;-61
2022/11/08 00:22:22;;;;;;;8.83;4.50;;;;;;;;;;523890;28;1169;-61
2022/11/08 00:22:38;;;;;;;8.32;4.53;;;;;;;;;;525952;27;1446;-60
2022/11/08 00:22:53;;;;;;;8.40;4.57;;;;;;;;;;523570;28;1210;-60
2022/11/08 00:23:08;;;;;;;8.37;4.53;;;;;;;;;;525821;28;1975;-60
2022/11/08 00:23:23;;;;;;;9.97;4.80;;;;;;;;;;522548;28;1314;-60
2022/11/08 00:23:39;;;;;;;9.27;4.83;;;;;;;;;;524317;28;1069;-60
2022/11/08 00:23:54;;;;;;;7.47;4.60;;;;;;;;;;522513;28;1243;-60
2022/11/08 00:24:09;;;;;;;9.27;4.40;;;;;;;;;;523040;28;1026;-60
2022/11/08 00:24:25;;;;;;;9.98;4.43;;;;;;;;;;522860;28;1299;-60
2022/11/08 00:24:41;;;;;;;8.82;4.70;;;;;;;;;;522599;28;1257;-61
2022/11/08 00:24:56;;;;;;;7.03;4.50;;;;;;;;;;522160;28;1137;-60
2022/11/08 00:25:12;;;;;;;7.93;4.23;;;;;;;;;;521829;28;1179;-61
2022/11/08 00:25:27;;;;;;;9.07;4.37;;;;;;;;;;523072;28;1220;-61
2022/11/08 00:25:42;;;;;;;8.10;4.55;;;;;;;;;;520513;28;1324;-60
2022/11/08 00:25:57;;;;;;;7.80;4.80;;;;;;;;;;523892;28;1081;-60
2022/11/08 00:26:13;;;;;;;7.60;4.60;;;;;;;;;;522800;28;1199;-61
2022/11/08 00:26:28;;;;;;;6.93;4.27;;;;;;;;;;523914;28;1165;-60
2022/11/08 00:26:43;;;;;;;6.50;4.38;;;;;;;;;;524730;28;1070;-60
2022/11/08 00:26:59;;;;;;;7.17;4.53;;;;;;;;;;523829;28;1048;-60
2022/11/08 00:27:18;;;;;;;8.65;4.53;;;;;;;;;;522722;28;1110;-61
2022/11/08 00:27:33;;;;;;;8.05;4.20;;;;;;;;;;523880;27;1372;-60
2022/11/08 00:27:48;;;;;;;8.68;4.47;;;;;;;;;;523280;28;1358;-60
2022/11/08 00:28:04;;;;;;;9.30;4.70;;;;;;;;;;521921;28;1180;-60
2022/11/08 00:28:19;;;;;;;7.67;4.53;;;;;;;;;;521599;28;1164;-61
2022/11/08 00:28:35;;;;;;;8.38;4.63;;;;;;;;;;523581;28;1085;-60
2022/11/08 00:28:50;;;;;;;9.57;4.73;;;;;;;;;;521422;28;1169;-61
2022/11/08 00:29:05;;;;;;;9.02;4.72;;;;;;;;;;521927;28;1212;-60
2022/11/08 00:29:20;;;;;;;8.10;4.70;;;;;;;;;;519228;28;1102;-61
2022/11/08 00:29:36;;;;;;;8.37;4.83;;;;;;;;;;521657;28;1500;-60
2022/11/08 00:29:52;;;;;;;8.65;5.00;;;;;;;;;;523654;28;1140;-62
2022/11/08 00:30:08;;;;;;;9.13;4.80;;;;;;;;;;521063;28;1338;-60
2022/11/08 00:30:23;;;;;;;10.10;4.75;;;;;;;;;;520277;28;1086;-60
2022/11/08 00:30:38;;;;;;;8.30;4.70;;;;;;;;;;520295;28;1557;-60
2022/11/08 00:30:54;;;;;;;7.20;4.60;;;;;;;;;;520595;28;1182;-60
2022/11/08 00:31:09;;;;;;;8.37;4.53;;;;;;;;;;520852;28;1204;-60
2022/11/08 00:31:24;;;;;;;8.45;4.68;;;;;;;;;;518945;28;1454;-60
2022/11/08 00:31:39;;;;;;;7.60;4.70;;;;;;;;;;518303;28;1042;-60
2022/11/08 00:31:55;;;;;;;7.17;4.63;;;;;;;;;;518513;28;1148;-60
2022/11/08 00:32:16;;;;;;;6.93;4.63;;;;;;;;;;522325;28;1175;-60
2022/11/08 00:32:31;;;;;;;7.68;4.45;;;;;;;;;;524421;28;1098;-60
2022/11/08 00:32:46;;;;;;;7.47;4.53;;;;;;;;;;521273;28;1058;-61
2022/11/08 00:33:02;;;;;;;7.13;4.40;;;;;;;;;;523131;28;1229;-60
2022/11/08 00:33:17;;;;;;;8.02;4.32;;;;;;;;;;524446;28;1085;-60
2022/11/08 00:33:32;;;;;;;9.30;4.50;;;;;;;;;;524214;27;1104;-61
2022/11/08 00:33:48;;;;;;;9.77;4.70;;;;;;;;;;523643;28;1158;-60
2022/11/08 00:34:03;;;;;;;9.53;4.80;;;;;;;;;;523816;28;1681;-60
2022/11/08 00:34:18;;;;;;;9.68;4.80;;;;;;;;;;521710;28;1485;-60
2022/11/08 00:34:34;;;;;;;8.37;4.70;;;;;;;;;;519743;28;1330;-60
2022/11/08 00:34:50;;;;;;;7.50;4.53;;;;;;;;;;518192;28;1340;-60
2022/11/08 00:35:06;;;;;;;8.18;4.38;;;;;;;;;;518938;28;1237;-61
2022/11/08 00:35:21;;;;;;;8.35;4.68;;;;;;;;;;519815;28;1256;-60
2022/11/08 00:35:36;;;;;;;7.80;4.83;;;;;;;;;;516811;28;1211;-60
2022/11/08 00:35:52;;;;;;;8.47;4.77;;;;;;;;;;517104;28;989;-60
2022/11/08 00:36:07;;;;;;;8.18;4.80;;;;;;;;;;517965;28;1153;-60
2022/11/08 00:36:23;;;;;;;8.17;4.60;;;;;;;;;;518138;28;1149;-60
2022/11/08 00:36:38;;;;;;;9.02;4.57;;;;;;;;;;522115;28;1319;-60
2022/11/08 00:36:53;;;;;;;9.53;4.90;;;;;;;;;;522187;28;1133;-60
2022/11/08 00:37:09;;;;;;;9.67;4.87;;;;;;;;;;524114;28;1137;-60
2022/11/08 00:37:24;;;;;;;9.93;4.65;;;;;;;;;;524013;27;1136;-60
2022/11/08 00:37:40;;;;;;;10.53;4.80;;;;;;;;;;526772;27;1104;-60
2022/11/08 00:37:55;;;;;;;11.07;4.90;;;;;;;;;;527889;27;1273;-61
2022/11/08 00:38:10;;;;;;;8.90;4.70;;;;;;;;;;528090;27;1010;-61
2022/11/08 00:38:26;;;;;;;8.80;4.50;;;;;;;;;;527475;27;1588;-60
2022/11/08 00:38:42;;;;;;;9.60;4.32;;;;;;;;;;527450;27;1203;-60
2022/11/08 00:38:57;;;;;;;7.43;4.30;;;;;;;;;;526497;27;1216;-60
2022/11/08 00:39:13;;;;;;;7.87;4.60;;;;;;;;;;527097;27;980;-60
2022/11/08 00:39:28;;;;;;;8.98;4.70;;;;;;;;;;528534;27;1049;-60
2022/11/08 00:39:43;;;;;;;9.00;4.73;;;;;;;;;;526761;27;1230;-60
2022/11/08 00:39:59;;;;;;;8.77;4.50;;;;;;;;;;522606;28;1847;-60
2022/11/08 00:40:14;;;;;;;10.10;4.53;;;;;;;;;;518824;28;1395;-60
2022/11/08 00:40:29;;;;;;;9.07;4.67;;;;;;;;;;521169;28;1316;-60
2022/11/08 00:40:44;;;;;;;8.10;4.87;;;;;;;;;;519430;28;1134;-60
2022/11/08 00:41:00;;;;;;;8.48;4.97;;;;;;;;;;520036;28;1142;-60
2022/11/08 00:41:15;;;;;;;7.67;4.97;;;;;;;;;;519159;28;1497;-61
2022/11/08 00:41:30;;;;;;;8.30;4.77;;;;;;;;;;517851;28;1185;-60
2022/11/08 00:41:46;;;;;;;8.87;4.60;;;;;;;;;;520673;28;1408;-60
2022/11/08 00:42:01;;;;;;;8.13;4.70;;;;;;;;;;524089;28;1090;-60
2022/11/08 00:42:16;;;;;;;7.53;4.63;;;;;;;;;;525614;28;962;-61
2022/11/08 00:42:32;;;;;;;7.57;4.70;;;;;;;;;;523540;28;1064;-61
2022/11/08 00:42:47;;;;;;;7.80;4.80;;;;;;;;;;522110;28;1039;-61
2022/11/08 00:43:02;;;;;;;8.07;4.73;;;;;;;;;;522882;28;1957;-61
2022/11/08 00:43:17;;;;;;;7.53;4.67;;;;;;;;;;524016;28;1168;-60
2022/11/08 00:43:33;;;;;;;8.20;4.60;;;;;;;;;;522299;28;1070;-60
2022/11/08 00:43:48;;;;;;;9.70;4.77;;;;;;;;;;519619;28;1535;-61
2022/11/08 00:44:03;;;;;;;9.60;4.90;;;;;;;;;;522358;28;1102;-61
2022/11/08 00:44:19;;;;;;;9.68;4.90;;;;;;;;;;522378;28;1071;-60
2022/11/08 00:44:34;;;;;;;9.37;5.20;;;;;;;;;;522891;28;1065;-61
2022/11/08 00:44:49;;;;;;;8.60;5.37;;;;;;;;;;524571;28;1245;-60
2022/11/08 00:45:05;;;;;;;8.45;5.20;;;;;;;;;;522771;28;1164;-60
2022/11/08 00:45:20;;;;;;;8.37;5.20;;;;;;;;;;524473;28;1168;-61
2022/11/08 00:45:36;;;;;;;8.60;5.17;;;;;;;;;;524086;27;1224;-60
2022/11/08 00:45:51;;;;;;;8.10;5.00;;;;;;;;;;527710;27;1140;-60
2022/11/08 00:46:07;;;;;;;7.50;5.00;;;;;;;;;;526080;27;1144;-61
2022/11/08 00:46:22;;;;;;;9.80;5.05;;;;;;;;;;525830;28;1197;-60
2022/11/08 00:46:37;;;;;;;10.87;5.23;;;;;;;;;;525436;28;1361;-60
2022/11/08 00:46:53;;;;;;;9.40;5.30;;;;;;;;;;525340;28;1483;-60
2022/11/08 00:47:08;;;;;;;9.60;5.03;;;;;;;;;;524953;28;996;-60
2022/11/08 00:47:24;;;;;;;9.40;4.95;;;;;;;;;;526021;27;1196;-61
2022/11/08 00:47:39;;;;;;;8.63;4.70;;;;;;;;;;523678;28;1113;-61
2022/11/08 00:47:54;;;;;;;9.20;4.80;;;;;;;;;;519282;28;1177;-62
2022/11/08 00:48:09;;;;;;;8.60;5.10;;;;;;;;;;522846;28;1173;-62
2022/11/08 00:48:25;;;;;;;7.50;4.97;;;;;;;;;;519593;28;1482;-61
2022/11/08 00:48:40;;;;;;;7.80;5.00;;;;;;;;;;518163;28;1096;-62
2022/11/08 00:48:55;;;;;;;7.90;4.97;;;;;;;;;;520452;28;1225;-61
2022/11/08 00:49:10;;;;;;;7.18;4.70;;;;;;;;;;521394;28;1094;-62
2022/11/08 00:49:26;;;;;;;7.07;4.70;;;;;;;;;;518295;28;1197;-62
2022/11/08 00:49:41;;;;;;;7.27;4.80;;;;;;;;;;522069;28;1158;-61
2022/11/08 00:49:56;;;;;;;8.03;4.80;;;;;;;;;;521605;28;1293;-62
2022/11/08 00:50:11;;;;;;;8.97;4.90;;;;;;;;;;520535;28;1154;-61
2022/11/08 00:50:27;;;;;;;8.47;4.77;;;;;;;;;;520830;28;1149;-62
2022/11/08 00:50:42;;;;;;;8.20;4.93;;;;;;;;;;519197;28;1310;-62
2022/11/08 00:51:02;;;;;;;9.23;5.13;;;;;;;;;;519482;28;1199;-62
2022/11/08 00:51:17;;;;;;;9.23;4.90;;;;;;;;;;520113;28;1127;-62
2022/11/08 00:51:32;;;;;;;7.93;5.03;;;;;;;;;;520255;28;1154;-62
2022/11/08 00:51:48;;;;;;;7.63;5.13;;;;;;;;;;520571;28;1097;-61
2022/11/08 00:52:03;;;;;;;7.67;5.00;;;;;;;;;;522975;28;1322;-62
2022/11/08 00:52:19;;;;;;;7.40;4.90;;;;;;;;;;521005;28;1027;-62
2022/11/08 00:52:34;;;;;;;7.93;4.97;;;;;;;;;;521581;28;1220;-62
2022/11/08 00:52:49;;;;;;;7.73;5.00;;;;;;;;;;521617;28;1098;-62
2022/11/08 00:53:04;;;;;;;6.95;4.70;;;;;;;;;;523710;28;1298;-62
2022/11/08 00:53:20;;;;;;;7.77;4.97;;;;;;;;;;523709;28;1655;-62
2022/11/08 00:53:37;;;;;;;10.03;5.43;;;;;;;;;;523453;28;1093;-62
2022/11/08 00:53:52;;;;;;;9.88;5.22;;;;;;;;;;520096;28;1281;-61
2022/11/08 00:54:12;;;;;;;7.88;5.10;;;;;;;;;;518705;28;1263;-61
2022/11/08 00:54:27;;;;;;;8.10;5.07;;;;;;;;;;520696;28;984;-62
2022/11/08 00:54:42;;;;;;;7.93;5.10;;;;;;;;;;518146;28;1232;-62
2022/11/08 00:54:57;;;;;;;10.07;5.30;;;;;;;;;;519694;28;1146;-61
2022/11/08 00:55:13;;;;;;;9.93;5.23;;;;;;;;;;523148;28;1231;-62
2022/11/08 00:55:28;;;;;;;9.03;5.17;;;;;;;;;;522217;28;1117;-62
2022/11/08 00:55:43;;;;;;;8.35;5.20;;;;;;;;;;522293;28;1058;-62
2022/11/08 00:56:06;;;;;;;7.77;5.03;;;;;;;;;;521541;28;1235;-62
2022/11/08 00:56:21;;;;;;;9.13;5.10;;;;;;;;;;521235;28;1131;-62
2022/11/08 00:56:37;;;;;;;9.20;5.00;;;;;;;;;;521585;28;1148;-61
2022/11/08 00:56:52;;;;;;;8.85;4.90;;;;;;;;;;523040;28;1439;-62
2022/11/08 00:57:07;;;;;;;8.70;5.00;;;;;;;;;;525725;28;1111;-61
2022/11/08 00:57:22;;;;;;;8.90;5.00;;;;;;;;;;524334;28;1198;-62
2022/11/08 00:57:38;;;;;;;8.53;4.60;;;;;;;;;;524021;28;1147;-62
2022/11/08 00:57:53;;;;;;;8.05;4.57;;;;;;;;;;520808;28;1189;-62
2022/11/08 00:58:08;;;;;;;8.03;4.73;;;;;;;;;;523133;28;1101;-61
2022/11/08 00:58:24;;;;;;;8.90;5.20;;;;;;;;;;521560;28;1383;-62
2022/11/08 00:58:40;;;;;;;9.13;5.37;;;;;;;;;;522920;28;1094;-62
2022/11/08 00:58:57;;;;;;;8.38;5.20;;;;;;;;;;521022;28;1552;-62
2022/11/08 00:59:14;;;;;;;7.93;5.40;;;;;;;;;;524127;28;1191;-61
2022/11/08 00:59:30;;;;;;;9.13;5.45;;;;;;;;;;525548;28;1218;-62
2022/11/08 00:59:45;;;;;;;8.48;5.20;;;;;;;;;;523126;28;1452;-62
2022/11/08 01:00:00;;;;;;;8.37;4.83;;;;;;;;;;524656;28;1172;-62
2022/11/08 01:00:16;;;;;;;9.07;5.03;;;;;;;;;;521189;28;1142;-62
2022/11/08 01:00:31;;;;;;;9.27;5.40;;;;;;;;;;519495;28;1201;-62
2022/11/08 01:00:46;;;;;;;9.87;5.50;;;;;;;;;;520097;28;1043;-62
2022/11/08 01:01:10;;;;;;;9.63;5.50;;;;;;;;;;519082;28;2334;-61
2022/11/08 01:01:26;;;;;;;8.55;5.20;;;;;;;;;;519723;28;1228;-62
2022/11/08 01:01:42;;;;;;;7.68;4.82;;;;;;;;;;523136;28;1204;-62
2022/11/08 01:01:57;;;;;;;8.90;4.88;;;;;;;;;;523612;28;1141;-62
2022/11/08 01:02:12;;;;;;;9.93;5.13;;;;;;;;;;522826;28;1165;-62
2022/11/08 01:02:27;;;;;;;9.83;5.37;;;;;;;;;;521320;28;1262;-62
2022/11/08 01:02:43;;;;;;;9.03;5.30;;;;;;;;;;522051;28;1368;-62
2022/11/08 01:03:32;;;;;;;8.40;5.40;;;;;;;;;;522562;28;1382;-62
2022/11/08 01:03:48;;;;;;;10.33;5.70;;;;;;;;;;524284;28;1174;-61
2022/11/08 01:04:04;;;;;;;10.00;5.32;;;;;;;;;;523065;28;1416;-62
2022/11/08 01:04:20;;;;;;;9.02;5.35;;;;;;;;;;523787;28;1125;-61
2022/11/08 01:04:35;;;;;;;9.55;5.43;;;;;;;;;;520866;28;1058;-62
2022/11/08 01:04:50;;;;;;;8.93;5.07;;;;;;;;;;523799;28;1310;-61
2022/11/08 01:05:06;;;;;;;8.27;5.03;;;;;;;;;;526282;28;1219;-62
2022/11/08 01:05:21;;;;;;;8.18;5.20;;;;;;;;;;524757;28;1195;-61
2022/11/08 01:05:36;;;;;;;8.80;5.20;;;;;;;;;;524088;28;1203;-61
2022/11/08 01:05:53;;;;;;;8.65;5.30;;;;;;;;;;518978;28;1341;-62
2022/11/08 01:06:10;;;;;;;9.32;5.60;;;;;;;;;;523725;28;1033;-61
2022/11/08 01:06:26;;;;;;;11.60;5.82;;;;;;;;;;524368;28;1116;-62
2022/11/08 01:06:41;;;;;;;10.83;5.67;;;;;;;;;;522377;28;1069;-62
2022/11/08 01:06:56;;;;;;;10.27;5.80;;;;;;;;;;523379;28;1180;-62
2022/11/08 01:07:11;;;;;;;11.60;5.93;;;;;;;;;;525151;28;1137;-62
2022/11/08 01:07:27;;;;;;;11.07;5.75;;;;;;;;;;523513;28;1093;-62
2022/11/08 01:07:42;;;;;;;11.00;5.60;;;;;;;;;;525411;27;1160;-62
2022/11/08 01:07:57;;;;;;;11.80;5.90;;;;;;;;;;524569;28;1373;-61
2022/11/08 01:08:12;;;;;;;11.37;6.00;;;;;;;;;;522686;28;1270;-61
2022/11/08 01:08:28;;;;;;;9.93;5.60;;;;;;;;;;523371;28;1165;-61
2022/11/08 01:08:43;;;;;;;11.37;5.60;;;;;;;;;;521363;28;1176;-62
2022/11/08 01:08:59;;;;;;;10.63;5.82;;;;;;;;;;520023;28;1213;-61
2022/11/08 01:09:14;;;;;;;8.70;5.80;;;;;;;;;;519055;28;1248;-62
2022/11/08 01:09:30;;;;;;;8.98;5.68;;;;;;;;;;516670;28;1416;-61
2022/11/08 01:09:45;;;;;;;9.03;5.50;;;;;;;;;;519143;28;1022;-62
2022/11/08 01:10:00;;;;;;;9.77;5.53;;;;;;;;;;520794;28;1122;-61
2022/11/08 01:10:16;;;;;;;9.80;5.72;;;;;;;;;;521694;28;1084;-61
2022/11/08 01:10:31;;;;;;;9.90;5.60;;;;;;;;;;523315;28;1160;-62
2022/11/08 01:10:49;;;;;;;10.17;5.63;;;;;;;;;;523425;28;1104;-62
2022/11/08 01:11:08;;;;;;;10.13;5.53;;;;;;;;;;525636;28;1145;-61
2022/11/08 01:11:24;;;;;;;9.63;5.35;;;;;;;;;;526231;27;966;-62
2022/11/08 01:11:44;;;;;;;10.93;5.63;;;;;;;;;;527984;27;1144;-62
2022/11/08 01:11:59;;;;;;;11.65;5.82;;;;;;;;;;528415;27;1024;-61
2022/11/08 01:12:14;;;;;;;10.37;5.80;;;;;;;;;;527580;27;1049;-61
2022/11/08 01:12:29;;;;;;;9.93;5.72;;;;;;;;;;525603;27;1778;-61
2022/11/08 01:12:45;;;;;;;9.57;5.70;;;;;;;;;;525439;27;2719;-61
2022/11/08 01:13:00;;;;;;;9.53;5.70;;;;;;;;;;525554;27;1175;-61
2022/11/08 01:13:16;;;;;;;8.77;5.60;;;;;;;;;;528043;27;1170;-61
2022/11/08 01:13:33;;;;;;;8.32;5.72;;;;;;;;;;527187;27;1128;-61
2022/11/08 01:13:49;;;;;;;9.93;5.80;;;;;;;;;;526831;27;1124;-61
2022/11/08 01:14:04;;;;;;;10.93;6.20;;;;;;;;;;527238;27;1104;-61
2022/11/08 01:14:20;;;;;;;9.93;6.00;;;;;;;;;;528136;27;1215;-61
2022/11/08 01:14:36;;;;;;;7.87;5.40;;;;;;;;;;525708;27;2652;-61
2022/11/08 01:14:51;;;;;;;9.07;5.72;;;;;;;;;;527199;27;1096;-61
2022/11/08 01:15:06;;;;;;;10.13;6.20;;;;;;;;;;525256;27;1384;-61
2022/11/08 01:15:22;;;;;;;10.98;6.55;;;;;;;;;;526009;27;1202;-61
2022/11/08 01:15:39;;;;;;;11.33;6.20;;;;;;;;;;523418;28;1334;-61
2022/11/08 01:15:55;;;;;;;10.82;5.80;;;;;;;;;;521852;28;1277;-61
2022/11/08 01:16:13;;;;;;;10.48;5.63;;;;;;;;;;518948;28;1234;-61
2022/11/08 01:16:31;;;;;;;9.40;5.70;;;;;;;;;;519158;28;1145;-61
2022/11/08 01:16:47;;;;;;;9.95;5.90;;;;;;;;;;519337;28;1063;-61
2022/11/08 01:17:02;;;;;;;10.17;5.97;;;;;;;;;;521712;28;1417;-61
2022/11/08 01:17:17;;;;;;;10.35;6.22;;;;;;;;;;521525;28;1066;-61
2022/11/08 01:17:32;;;;;;;9.83;6.13;;;;;;;;;;522530;28;1284;-61
2022/11/08 01:17:48;;;;;;;8.57;5.80;;;;;;;;;;523198;27;1619;-61
2022/11/08 01:18:03;;;;;;;9.70;5.90;;;;;;;;;;522891;27;1187;-61
2022/11/08 01:18:19;;;;;;;11.57;5.95;;;;;;;;;;526403;27;1230;-61
2022/11/08 01:18:34;;;;;;;9.73;5.73;;;;;;;;;;521231;28;1464;-61
2022/11/08 01:18:52;;;;;;;9.90;5.90;;;;;;;;;;519201;28;1392;-61
2022/11/08 01:19:07;;;;;;;11.13;6.20;;;;;;;;;;516823;28;1494;-61
2022/11/08 01:19:23;;;;;;;9.20;6.07;;;;;;;;;;519165;28;1387;-61
2022/11/08 01:19:38;;;;;;;9.80;5.97;;;;;;;;;;518293;28;1364;-61
2022/11/08 01:19:53;;;;;;;11.43;6.05;;;;;;;;;;518725;28;1253;-62
2022/11/08 01:20:09;;;;;;;10.83;6.03;;;;;;;;;;517363;28;1377;-61
2022/11/08 01:20:24;;;;;;;11.77;6.00;;;;;;;;;;519001;28;1240;-61
2022/11/08 01:20:41;;;;;;;11.73;6.20;;;;;;;;;;521238;28;1322;-61
2022/11/08 01:20:56;;;;;;;9.43;6.30;;;;;;;;;;522051;28;1487;-61
2022/11/08 01:21:12;;;;;;;9.80;6.27;;;;;;;;;;519702;28;1532;-61
2022/11/08 01:21:28;;;;;;;10.30;6.20;;;;;;;;;;519689;28;1381;-61
2022/11/08 01:21:43;;;;;;;8.88;5.88;;;;;;;;;;519488;28;1397;-61
2022/11/08 01:21:59;;;;;;;9.27;5.80;;;;;;;;;;521391;28;1332;-61
2022/11/08 01:22:14;;;;;;;9.88;5.88;;;;;;;;;;518576;28;1401;-61
2022/11/08 01:22:29;;;;;;;9.90;5.83;;;;;;;;;;520928;28;1291;-61
2022/11/08 01:22:45;;;;;;;10.13;5.90;;;;;;;;;;518467;28;1284;-61
2022/11/08 01:23:00;;;;;;;9.48;5.72;;;;;;;;;;518589;28;1212;-62
2022/11/08 01:23:17;;;;;;;10.43;5.80;;;;;;;;;;519339;28;1965;-61
2022/11/08 01:23:33;;;;;;;12.55;6.25;;;;;;;;;;521017;28;1243;-61
2022/11/08 01:23:49;;;;;;;10.10;6.03;;;;;;;;;;521559;28;1283;-61
2022/11/08 01:24:05;;;;;;;8.80;5.88;;;;;;;;;;523382;28;1548;-61
2022/11/08 01:24:20;;;;;;;10.15;6.00;;;;;;;;;;520806;28;1344;-61
2022/11/08 01:24:35;;;;;;;10.77;6.23;;;;;;;;;;521470;28;1530;-61
2022/11/08 01:24:51;;;;;;;9.60;6.17;;;;;;;;;;522894;28;1301;-61
2022/11/08 01:25:06;;;;;;;9.40;5.93;;;;;;;;;;520705;28;1600;-61
2022/11/08 01:25:21;;;;;;;9.57;5.83;;;;;;;;;;521334;28;1378;-61
2022/11/08 01:25:38;;;;;;;8.53;5.80;;;;;;;;;;521581;28;1236;-61
2022/11/08 01:25:53;;;;;;;8.93;5.95;;;;;;;;;;518237;28;1326;-61
2022/11/08 01:26:21;;;;;;;10.63;6.13;;;;;;;;;;518682;28;1395;-61
2022/11/08 01:26:36;;;;;;;9.60;6.25;;;;;;;;;;520754;28;1517;-61
2022/11/08 01:26:52;;;;;;;10.20;6.37;;;;;;;;;;520415;28;1196;-61
2022/11/08 01:27:07;;;;;;;9.93;6.30;;;;;;;;;;526421;27;1588;-61
2022/11/08 01:27:22;;;;;;;9.17;6.00;;;;;;;;;;527052;27;1330;-61
2022/11/08 01:27:38;;;;;;;10.83;6.13;;;;;;;;;;520567;28;1587;-61
2022/11/08 01:27:53;;;;;;;11.45;5.95;;;;;;;;;;524244;28;1321;-61
2022/11/08 01:28:09;;;;;;;11.23;5.90;;;;;;;;;;526263;27;1294;-61
2022/11/08 01:28:25;;;;;;;10.43;6.00;;;;;;;;;;526155;27;1538;-61
2022/11/08 01:28:40;;;;;;;9.27;5.90;;;;;;;;;;526013;27;1263;-61
2022/11/08 01:28:57;;;;;;;9.00;5.80;;;;;;;;;;522089;28;1459;-61
2022/11/08 01:29:12;;;;;;;11.43;5.90;;;;;;;;;;524832;28;1468;-61
2022/11/08 01:29:27;;;;;;;10.70;5.90;;;;;;;;;;524323;28;1562;-61
2022/11/08 01:29:42;;;;;;;9.00;5.97;;;;;;;;;;524696;28;1575;-61
2022/11/08 01:29:58;;;;;;;10.25;5.97;;;;;;;;;;521856;28;1872;-61
2022/11/08 01:30:13;;;;;;;10.33;6.10;;;;;;;;;;523732;28;1400;-61
2022/11/08 01:30:28;;;;;;;8.40;5.67;;;;;;;;;;523791;28;1226;-61
2022/11/08 01:30:44;;;;;;;7.20;5.33;;;;;;;;;;521350;28;1544;-61
2022/11/08 01:31:04;;;;;;;7.95;5.68;;;;;;;;;;521434;28;1353;-61
2022/11/08 01:31:22;;;;;;;8.82;5.55;;;;;;;;;;521113;28;1202;-61
2022/11/08 01:31:37;;;;;;;8.13;5.50;;;;;;;;;;519624;28;1554;-61
2022/11/08 01:31:53;;;;;;;8.43;5.57;;;;;;;;;;518495;28;1287;-61
2022/11/08 01:32:08;;;;;;;9.60;5.67;;;;;;;;;;520610;28;1549;-61
2022/11/08 01:32:23;;;;;;;10.33;5.83;;;;;;;;;;521055;28;1537;-61
2022/11/08 01:32:39;;;;;;;11.50;6.00;;;;;;;;;;521588;28;1164;-61
2022/11/08 01:32:54;;;;;;;10.10;6.10;;;;;;;;;;519651;28;1203;-61
2022/11/08 01:33:10;;;;;;;10.00;6.00;;;;;;;;;;522023;28;1374;-61
2022/11/08 01:33:25;;;;;;;9.60;5.60;;;;;;;;;;522088;28;1505;-61
2022/11/08 01:33:41;;;;;;;9.93;5.65;;;;;;;;;;526329;28;1312;-61
2022/11/08 01:33:57;;;;;;;11.47;5.80;;;;;;;;;;523752;28;1408;-61
2022/11/08 01:34:13;;;;;;;10.20;5.53;;;;;;;;;;524763;27;1521;-61
2022/11/08 01:34:28;;;;;;;8.30;5.53;;;;;;;;;;524365;27;1717;-61
2022/11/08 01:34:43;;;;;;;9.20;5.50;;;;;;;;;;525691;27;1393;-61
2022/11/08 01:34:58;;;;;;;10.07;5.50;;;;;;;;;;524950;28;1166;-61
2022/11/08 01:35:14;;;;;;;8.13;5.43;;;;;;;;;;521014;28;1237;-61
2022/11/08 01:35:31;;;;;;;7.17;5.33;;;;;;;;;;519257;28;1415;-61
2022/11/08 01:35:46;;;;;;;9.38;5.50;;;;;;;;;;519689;28;1575;-61
2022/11/08 01:36:01;;;;;;;11.70;6.00;;;;;;;;;;521481;28;1327;-61
2022/11/08 01:36:20;;;;;;;10.70;6.13;;;;;;;;;;521699;28;1303;-62
2022/11/08 01:36:35;;;;;;;9.55;6.00;;;;;;;;;;521985;28;1500;-61
2022/11/08 01:36:51;;;;;;;9.80;5.90;;;;;;;;;;522433;28;1220;-61
2022/11/08 01:37:06;;;;;;;10.60;5.80;;;;;;;;;;520992;28;1271;-61
2022/11/08 01:37:21;;;;;;;12.00;6.30;;;;;;;;;;526201;27;1245;-61
2022/11/08 01:37:36;;;;;;;11.93;6.60;;;;;;;;;;522842;28;1616;-61
2022/11/08 01:37:52;;;;;;;11.53;6.50;;;;;;;;;;524199;28;1269;-61
2022/11/08 01:38:09;;;;;;;11.37;6.40;;;;;;;;;;523543;27;1586;-60
2022/11/08 01:38:24;;;;;;;8.65;5.90;;;;;;;;;;523478;27;1480;-61
2022/11/08 01:38:40;;;;;;;11.30;6.18;;;;;;;;;;524939;28;1155;-61
2022/11/08 01:38:56;;;;;;;13.70;6.40;;;;;;;;;;520945;28;1148;-61
2022/11/08 01:39:12;;;;;;;10.93;5.97;;;;;;;;;;519897;28;1573;-61
2022/11/08 01:39:31;;;;;;;9.27;5.73;;;;;;;;;;520698;28;1498;-61
2022/11/08 01:39:46;;;;;;;11.15;6.07;;;;;;;;;;521836;28;1453;-61
2022/11/08 01:40:03;;;;;;;11.63;5.90;;;;;;;;;;520780;28;1198;-61
2022/11/08 01:40:18;;;;;;;10.70;5.85;;;;;;;;;;518425;28;1462;-61
2022/11/08 01:40:33;;;;;;;9.52;5.75;;;;;;;;;;518972;28;1231;-61
2022/11/08 01:40:49;;;;;;;8.63;5.50;;;;;;;;;;518369;28;1236;-61
2022/11/08 01:41:05;;;;;;;9.03;5.87;;;;;;;;;;520645;28;1207;-61
2022/11/08 01:41:23;;;;;;;8.30;5.90;;;;;;;;;;524136;28;974;-61
2022/11/08 01:41:38;;;;;;;10.07;6.20;;;;;;;;;;522098;28;1347;-61
2022/11/08 01:41:53;;;;;;;9.77;5.97;;;;;;;;;;522382;28;1184;-61
2022/11/08 01:42:08;;;;;;;8.53;5.40;;;;;;;;;;524759;28;1304;-61
2022/11/08 01:42:27;;;;;;;10.53;5.63;;;;;;;;;;523147;28;1191;-62
2022/11/08 01:42:43;;;;;;;10.02;5.97;;;;;;;;;;521479;28;1214;-61
2022/11/08 01:42:58;;;;;;;10.82;6.57;;;;;;;;;;521429;28;1101;-61
2022/11/08 01:43:28;;;;;;;10.97;6.33;;;;;;;;;;522772;28;1907;-61
2022/11/08 01:43:57;;;;;;;9.40;5.85;;;;;;;;;;519845;28;1270;-61
2022/11/08 01:44:15;;;;;;;9.68;5.75;;;;;;;;;;519975;28;1122;-61
2022/11/08 01:44:31;;;;;;;7.85;5.35;;;;;;;;;;520767;28;1142;-61
2022/11/08 01:45:06;;;;;;;9.77;5.80;;;;;;;;;;522582;27;1226;-61
2022/11/08 01:45:59;;;;;;;10.98;6.10;;;;;;;;;;521580;28;1434;-61
2022/11/08 01:46:17;;;;;;;10.65;6.32;;;;;;;;;;524514;28;1263;-61
2022/11/08 01:46:37;;;;;;;11.40;6.40;;;;;;;;;;525320;28;1197;-61
2022/11/08 01:46:53;;;;;;;10.77;5.80;;;;;;;;;;522397;28;2491;-61
2022/11/08 01:47:08;;;;;;;9.75;5.90;;;;;;;;;;521168;28;1215;-61
2022/11/08 01:47:23;;;;;;;8.60;6.17;;;;;;;;;;521042;28;1220;-61
2022/11/08 01:47:38;;;;;;;8.83;5.87;;;;;;;;;;520219;28;993;-61
2022/11/08 01:47:54;;;;;;;8.90;5.87;;;;;;;;;;519756;28;1074;-61
2022/11/08 01:48:10;;;;;;;9.82;5.90;;;;;;;;;;520810;28;1110;-62
2022/11/08 01:48:27;;;;;;;11.05;6.03;;;;;;;;;;523647;28;1194;-62
2022/11/08 01:48:47;;;;;;;10.15;6.00;;;;;;;;;;522330;28;1192;-61
2022/11/08 01:49:12;;;;;;;10.20;6.22;;;;;;;;;;524371;28;1310;-61
2022/11/08 01:49:38;;;;;;;9.25;6.03;;;;;;;;;;526289;27;1196;-61
2022/11/08 01:49:59;;;;;;;10.10;6.03;;;;;;;;;;523863;28;1274;-61